This is the latest recevied weather packets stored in our database for station/object KO6HRZ. If no packets are shown the sender has not sent any weather packets the latest 10 day(s).
| Time | Temp. | Humidity | Pressure | Rain* | Wind** | Luminosity | Snow |
|---|---|---|---|---|---|---|---|
| 1777398933 | 20.56° C | 59% | 1020.9 hPa | 0 mm | - | 655 W/m² | - |
| 1777398332 | 20.56° C | 61% | 1020.9 hPa | 0 mm | - | 626 W/m² | - |
| 1777397732 | 20.56° C | 60% | 1020.9 hPa | 0 mm | - | 603 W/m² | - |
| 1777397130 | 19.44° C | 62% | 1020.9 hPa | 0 mm | - | 576 W/m² | - |
| 1777396529 | 18.89° C | 65% | 1020.8 hPa | 0 mm | - | 548 W/m² | - |
| 1777395928 | 18.89° C | 65% | 1020.8 hPa | 0 mm | - | 521 W/m² | - |
| 1777395326 | 18.33° C | 67% | 1020.9 hPa | 0 mm | - | 496 W/m² | - |
| 1777394726 | 18.89° C | 66% | 1020.9 hPa | 0 mm | - | 464 W/m² | - |
| 1777394124 | 17.78° C | 69% | 1021 hPa | 0 mm | - | 432 W/m² | - |
| 1777393524 | 17.78° C | 71% | 1020.8 hPa | 0 mm | - | 402 W/m² | - |
| 1777392924 | 16.67° C | 74% | 1021.3 hPa | 0 mm | - | 369 W/m² | - |
| 1777392320 | 16.67° C | 74% | 1021 hPa | 0 mm | - | 340 W/m² | - |
| 1777391716 | 15° C | 81% | 1020.8 hPa | 0 mm | - | 324 W/m² | - |
| 1777391115 | 15° C | 81% | 1021 hPa | 0 mm | - | 309 W/m² | - |
| 1777390514 | 14.44° C | 81% | 1020.7 hPa | 0 mm | - | 235 W/m² | - |
| 1777389912 | 14.44° C | 82% | 1020.9 hPa | 0 mm | - | 187 W/m² | - |
| 1777389311 | 13.33° C | 85% | 1020.7 hPa | 0 mm | - | 155 W/m² | - |
| 1777388706 | 12.78° C | 86% | 1020.6 hPa | 0 mm | - | 131 W/m² | - |
| 1777388102 | 12.22° C | 88% | 1020.5 hPa | 0 mm | - | 115 W/m² | - |
| 1777387501 | 11.11° C | 92% | 1020.5 hPa | 0 mm | - | 99 W/m² | - |
| 1777386897 | 10.56° C | 94% | 1020.2 hPa | 0 mm | - | 50 W/m² | - |
| 1777386298 | 10° C | 95% | 1020.2 hPa | 0 mm | - | 45 W/m² | - |
| 1777385698 | 10° C | 96% | 1020.1 hPa | 0 mm | - | 39 W/m² | - |
| 1777385097 | 8.89° C | 97% | 1020 hPa | 0 mm | - | 34 W/m² | - |
| 1777384496 | 8.89° C | 97% | 1019.7 hPa | 0 mm | - | 28 W/m² | - |
* Rain latest hour (hover to see other rain measurements)
** Current wind speed in m/s (hover to see current wind gust speed)